Time;durP1;ratioP1;P1;durP2;ratioP2;P2;SDS_P1;SDS_P2;PMS_P1;PMS_P2;Temp;Humidity;BMP_temperature;BMP_pressure;BME280_temperature;BME280_humidity;BME280_pressure;Samples;Min_cycle;Max_cycle;Signal;HPM_P1;HPM_P2
2022/06/19 07:55:35;;;;;;;9.18;3.30;;;20.30;99.90;;;;;;5090729;28;20563;-72
2022/06/19 07:58:01;;;;;;;10.73;3.63;;;19.40;99.90;;;;;;5090766;28;20166;-72
2022/06/19 08:00:30;;;;;;;16.08;3.80;;;19.30;99.90;;;;;;5089448;28;20606;-72
2022/06/19 08:02:56;;;;;;;12.57;3.40;;;19.10;99.90;;;;;;5090688;28;20209;-72
2022/06/19 08:05:25;;;;;;;5.47;3.42;;;18.80;99.90;;;;;;5089630;28;20528;-72
2022/06/19 08:07:52;;;;;;;10.38;5.07;;;18.60;99.90;;;;;;5089244;28;20531;-72
2022/06/19 08:10:24;;;;;;;13.02;3.42;;;18.70;99.90;;;;;;5090615;28;20228;-71
2022/06/19 08:12:54;;;;;;;23.13;4.28;;;18.60;99.90;;;;;;5090403;28;20178;-71
2022/06/19 08:15:20;;;;;;;24.25;3.85;;;18.60;99.90;;;;;;5090365;28;20195;-71
2022/06/19 08:17:46;;;;;;;10.95;3.40;;;18.50;99.90;;;;;;5090370;28;20175;-72
2022/06/19 08:20:13;;;;;;;10.90;3.50;;;18.40;99.90;;;;;;5090316;28;20167;-71
2022/06/19 08:22:41;;;;;;;11.32;3.40;;;18.40;99.90;;;;;;5090301;28;20167;-71
2022/06/19 08:25:08;;;;;;;12.88;3.80;;;18.30;99.90;;;;;;5090251;28;20172;-71
2022/06/19 08:27:41;;;;;;;11.73;4.60;;;18.50;99.90;;;;;;5090203;28;20171;-71
2022/06/19 08:30:11;;;;;;;16.70;3.78;;;18.60;99.90;;;;;;5090232;28;20265;-72
2022/06/19 08:32:37;;;;;;;11.55;3.42;;;18.60;99.90;;;;;;5088656;28;20178;-72
2022/06/19 08:35:03;;;;;;;12.40;4.10;;;18.60;99.90;;;;;;5090069;28;20278;-72
2022/06/19 08:37:29;;;;;;;10.35;4.03;;;18.60;99.90;;;;;;5088635;28;20632;-71
2022/06/19 08:39:55;;;;;;;11.25;4.03;;;18.50;99.90;;;;;;5089921;28;20178;-72
2022/06/19 08:42:55;;;;;;;14.52;5.00;;;18.60;99.90;;;;;;5089700;28;20188;-72
2022/06/19 08:45:30;;;;;;;15.13;4.55;;;18.60;99.90;;;;;;5089719;28;20168;-72
2022/06/19 08:48:15;;;;;;;14.48;4.15;;;18.60;99.90;;;;;;5088517;28;20175;-72
2022/06/19 08:50:50;;;;;;;12.55;5.22;;;18.60;99.90;;;;;;5089794;28;20687;-72
2022/06/19 08:53:36;;;;;;;11.75;4.95;;;18.80;99.90;;;;;;5089299;28;20246;-72
2022/06/19 08:56:05;;;;;;;13.65;5.43;;;18.90;99.90;;;;;;5088324;28;20514;-71
2022/06/19 08:58:51;;;;;;;16.52;4.93;;;18.90;99.90;;;;;;5089611;28;20167;-71
2022/06/19 09:01:28;;;;;;;19.10;4.63;;;18.90;99.90;;;;;;5089069;28;20523;-71
2022/06/19 09:07:21;;;;;;;13.23;5.20;;;19.00;99.90;;;;;;5076805;28;20178;-72
2022/06/19 09:10:23;;;;;;;15.35;5.28;;;19.00;99.90;;;;;;5075837;28;20168;-72
2022/06/19 09:12:49;;;;;;;12.95;4.13;;;19.00;99.90;;;;;;5075775;28;20176;-72
2022/06/19 09:15:18;;;;;;;18.67;5.13;;;19.10;99.90;;;;;;5075638;28;20222;-72
2022/06/19 09:18:04;;;;;;;12.10;5.30;;;19.40;99.90;;;;;;5075653;28;20164;-72
2022/06/19 09:20:29;;;;;;;24.85;5.88;;;19.60;99.90;;;;;;5074250;28;20183;-72
2022/06/19 09:23:18;;;;;;;16.45;4.50;;;19.80;99.90;;;;;;5074308;28;20574;-72
2022/06/19 09:26:02;;;;;;;11.80;5.13;;;20.00;99.90;;;;;;5074472;28;20229;-72
2022/06/19 09:28:38;;;;;;;8.55;3.85;;;20.20;99.90;;;;;;5075680;28;20160;-71
2022/06/19 09:31:09;;;;;;;10.23;3.88;;;20.50;99.90;;;;;;5075585;28;20175;-71
2022/06/19 09:33:38;;;;;;;8.98;4.10;;;20.80;99.90;;;;;;5075527;28;20196;-72
2022/06/19 09:36:29;;;;;;;14.63;4.03;;;21.00;99.90;;;;;;5075578;28;20170;-72
2022/06/19 09:39:04;;;;;;;11.32;4.82;;;21.20;99.90;;;;;;5075462;28;20179;-72
2022/06/19 09:41:56;;;;;;;13.10;4.28;;;21.10;99.90;;;;;;5074116;28;20533;-72
2022/06/19 09:44:37;;;;;;;14.55;5.32;;;21.00;99.90;;;;;;5074382;28;20182;-72
2022/06/19 09:47:13;;;;;;;14.23;4.32;;;20.90;99.90;;;;;;5075364;28;20168;-72
2022/06/19 09:49:57;;;;;;;16.63;4.50;;;21.10;99.90;;;;;;5073995;28;20171;-72
2022/06/19 09:52:29;;;;;;;11.68;4.47;;;21.30;99.90;;;;;;5075260;28;20170;-72
2022/06/19 09:55:09;;;;;;;11.75;4.85;;;21.50;99.90;;;;;;5075006;28;20289;-72
2022/06/19 09:57:51;;;;;;;12.73;4.53;;;21.60;99.90;;;;;;5075172;28;20169;-71
2022/06/19 10:00:24;;;;;;;11.38;4.82;;;21.80;99.90;;;;;;5075058;28;20261;-72
2022/06/19 10:03:00;;;;;;;16.83;4.68;;;22.00;99.90;;;;;;5075001;28;20169;-72
2022/06/19 10:05:40;;;;;;;12.85;4.35;;;22.30;99.90;;;;;;5074995;28;20194;-72
2022/06/19 10:08:28;;;;;;;15.77;5.07;;;22.50;99.90;;;;;;5074980;28;20179;-72
2022/06/19 10:11:02;;;;;;;14.18;4.60;;;22.60;99.90;;;;;;5074811;28;20571;-72
2022/06/19 10:13:50;;;;;;;12.98;4.28;;;22.80;99.90;;;;;;5074660;28;20163;-73
2022/06/19 10:16:31;;;;;;;14.43;4.28;;;23.00;99.90;;;;;;5074651;28;20152;-72
2022/06/19 10:18:59;;;;;;;15.30;4.45;;;23.10;99.90;;;;;;5073969;28;20166;-72
2022/06/19 10:24:59;;;;;;;12.75;4.20;;;23.30;99.90;;;;;;5074482;28;20171;-72
2022/06/19 10:27:37;;;;;;;6.28;3.67;;;23.40;99.90;;;;;;5074440;28;20179;-72
2022/06/19 10:30:13;;;;;;;16.10;4.78;;;23.50;99.90;;;;;;5074544;28;20175;-72
2022/06/19 10:33:14;;;;;;;11.80;4.97;;;23.60;99.90;;;;;;5074337;28;20588;-72
2022/06/19 10:35:48;;;;;;;12.45;4.28;;;23.30;99.90;;;;;;5074334;28;20172;-72
2022/06/19 10:38:42;;;;;;;15.65;4.80;;;23.00;99.90;;;;;;5073001;28;20171;-72
2022/06/19 10:41:07;;;;;;;13.45;4.88;;;22.70;99.90;;;;;;5072991;28;20168;-72
2022/06/19 10:43:59;;;;;;;15.25;5.10;;;22.60;99.90;;;;;;5072857;28;20732;-71
2022/06/19 10:46:26;;;;;;;15.63;5.45;;;22.50;99.90;;;;;;5074097;28;20168;-71
2022/06/19 10:49:18;;;;;;;15.45;4.55;;;22.50;99.90;;;;;;5072838;28;20179;-72
2022/06/19 10:51:59;;;;;;;14.90;4.13;;;22.60;99.90;;;;;;5074023;28;20660;-72
2022/06/19 10:54:45;;;;;;;10.35;4.38;;;22.90;99.90;;;;;;5073803;28;20224;-72
2022/06/19 10:57:15;;;;;;;10.13;3.80;;;23.10;99.90;;;;;;5073894;28;20238;-72
2022/06/19 10:59:41;;;;;;;11.82;4.45;;;23.30;99.90;;;;;;5073795;28;20251;-77
2022/06/19 11:06:00;;;;;;;12.80;3.75;;;23.20;99.90;;;;;;5083574;28;20180;-77
2022/06/19 11:08:29;;;;;;;7.85;3.65;;;23.20;99.90;;;;;;5072871;28;20235;-77
2022/06/19 11:10:57;;;;;;;9.25;4.38;;;23.30;99.90;;;;;;5073723;28;20637;-77
2022/06/19 11:13:24;;;;;;;11.70;4.38;;;23.30;99.90;;;;;;5073571;28;20179;-77
2022/06/19 11:16:10;;;;;;;14.00;4.93;;;23.10;99.90;;;;;;5073572;28;20158;-78
2022/06/19 11:18:47;;;;;;;14.52;4.55;;;22.80;99.90;;;;;;5072410;28;20203;-76
2022/06/19 11:21:20;;;;;;;14.80;4.78;;;22.50;99.90;;;;;;5073542;28;20629;-78
2022/06/19 11:23:48;;;;;;;7.30;3.70;;;22.30;99.90;;;;;;5073577;28;20660;-78
2022/06/19 11:26:21;;;;;;;11.30;4.15;;;22.30;99.90;;;;;;5073597;28;20168;-78
2022/06/19 11:28:57;;;;;;;17.25;4.72;;;22.20;99.90;;;;;;5071850;28;20640;-78
2022/06/19 11:31:30;;;;;;;12.45;4.50;;;22.40;99.90;;;;;;5073402;28;20171;-78
2022/06/19 11:34:02;;;;;;;11.43;4.57;;;22.60;99.90;;;;;;5073277;28;20199;-79
2022/06/19 11:36:30;;;;;;;7.35;3.97;;;22.80;99.90;;;;;;5072151;28;20529;-78
2022/06/19 11:38:56;;;;;;;15.32;5.28;;;22.90;99.90;;;;;;5073318;28;20168;-77
2022/06/19 11:41:21;;;;;;;11.80;4.18;;;23.00;99.90;;;;;;5071900;28;20192;-78
2022/06/19 11:44:06;;;;;;;12.38;3.90;;;23.30;99.90;;;;;;5073213;28;20192;-78
2022/06/19 11:46:41;;;;;;;9.35;4.63;;;23.60;99.90;;;;;;5072035;28;20264;-79
2022/06/19 11:49:30;;;;;;;9.45;4.25;;;23.70;99.90;;;;;;5073307;28;20179;-79
2022/06/19 11:52:01;;;;;;;13.07;5.15;;;23.60;99.90;;;;;;5073189;28;20168;-78
2022/06/19 11:54:42;;;;;;;16.25;4.82;;;23.60;99.90;;;;;;5073055;28;20251;-79
2022/06/19 11:57:25;;;;;;;10.20;4.10;;;23.50;99.90;;;;;;5071989;28;20210;-78
2022/06/19 11:59:56;;;;;;;8.35;4.10;;;23.30;99.90;;;;;;5073217;28;20187;-78
2022/06/19 12:02:28;;;;;;;14.60;4.70;;;23.20;99.90;;;;;;5073131;28;20220;-78
2022/06/19 12:04:58;;;;;;;16.45;5.35;;;22.90;99.90;;;;;;5073207;28;20391;-78
2022/06/19 12:07:28;;;;;;;16.20;4.63;;;22.80;99.90;;;;;;5073119;28;20244;-78
2022/06/19 12:10:06;;;;;;;9.70;5.10;;;22.80;99.90;;;;;;5073082;28;20186;-78
2022/06/19 12:12:33;;;;;;;12.35;4.35;;;22.80;99.90;;;;;;5073044;28;20664;-77
2022/06/19 12:15:13;;;;;;;13.93;4.65;;;23.00;99.90;;;;;;5072972;28;20203;-78
2022/06/19 12:17:44;;;;;;;12.85;4.82;;;23.10;99.90;;;;;;5072963;28;20194;-78
2022/06/19 12:20:09;;;;;;;13.98;4.88;;;23.10;99.90;;;;;;5071657;28;20175;-77
2022/06/19 12:22:51;;;;;;;7.95;4.15;;;23.10;99.90;;;;;;5071571;28;20168;-77
2022/06/19 12:25:28;;;;;;;12.02;4.55;;;23.00;99.90;;;;;;5072849;28;20217;-78
2022/06/19 12:28:29;;;;;;;11.35;4.30;;;23.20;99.90;;;;;;5071492;28;20656;-78
2022/06/19 12:31:18;;;;;;;15.30;4.78;;;23.30;99.90;;;;;;5072925;28;20686;-80
2022/06/19 12:33:57;;;;;;;16.40;5.63;;;23.30;99.90;;;;;;5072670;28;20330;-79
2022/06/19 12:36:29;;;;;;;12.88;4.55;;;23.30;99.90;;;;;;5072844;28;20167;-79
2022/06/19 12:38:55;;;;;;;15.00;4.35;;;23.20;99.90;;;;;;5072837;28;20251;-79
2022/06/19 12:41:32;;;;;;;10.90;4.45;;;23.20;99.90;;;;;;5073341;28;20175;-78
2022/06/19 12:44:10;;;;;;;11.20;4.70;;;23.10;99.90;;;;;;5076371;28;20191;-78
2022/06/19 12:46:49;;;;;;;17.92;4.63;;;23.30;99.90;;;;;;5076512;28;20168;-78
2022/06/19 12:49:39;;;;;;;9.30;4.20;;;23.40;99.90;;;;;;5075253;28;20186;-78
2022/06/19 12:52:25;;;;;;;15.15;5.00;;;23.50;99.90;;;;;;5076325;28;20167;-78
2022/06/19 12:55:14;;;;;;;15.23;5.57;;;23.30;99.90;;;;;;5074760;28;20700;-77
2022/06/19 12:58:01;;;;;;;15.20;5.80;;;23.50;99.90;;;;;;5074986;28;20168;-77
2022/06/19 13:00:36;;;;;;;19.38;5.28;;;23.60;99.90;;;;;;5076189;28;20167;-77
2022/06/19 13:03:36;;;;;;;9.13;4.60;;;23.70;99.90;;;;;;5074877;28;20580;-77
2022/06/19 13:06:26;;;;;;;16.23;4.68;;;23.90;99.90;;;;;;5076113;28;20511;-77
2022/06/19 13:09:16;;;;;;;14.05;4.38;;;24.00;99.90;;;;;;5074760;28;20193;-77
2022/06/19 13:11:47;;;;;;;17.98;4.18;;;23.80;99.90;;;;;;5075938;28;20168;-77
2022/06/19 13:14:22;;;;;;;11.50;4.22;;;24.10;99.90;;;;;;5074598;28;20280;-76
2022/06/19 13:17:03;;;;;;;9.10;4.53;;;24.00;99.90;;;;;;5074663;28;20305;-77
2022/06/19 13:19:38;;;;;;;11.75;4.85;;;24.00;99.90;;;;;;5075902;28;20163;-78
2022/06/19 13:22:30;;;;;;;10.45;3.53;;;23.70;99.90;;;;;;5075769;28;20212;-77
2022/06/19 13:25:33;;;;;;;15.48;4.43;;;23.90;99.90;;;;;;5075880;28;20633;-79
2022/06/19 13:28:29;;;;;;;10.50;3.88;;;23.60;99.90;;;;;;5074424;28;20261;-77
2022/06/19 13:31:22;;;;;;;10.27;4.90;;;23.30;99.90;;;;;;5075716;28;20633;-77
2022/06/19 13:34:22;;;;;;;13.38;4.28;;;23.20;99.90;;;;;;5073874;28;20207;-76
2022/06/19 13:37:01;;;;;;;8.85;3.50;;;23.50;99.90;;;;;;5075611;28;20544;-77
2022/06/19 13:39:38;;;;;;;16.80;4.28;;;23.80;99.90;;;;;;5075502;28;20171;-78
2022/06/19 13:42:31;;;;;;;8.38;3.53;;;23.70;99.90;;;;;;5075422;28;20636;-77
2022/06/19 13:45:02;;;;;;;13.68;4.43;;;23.60;99.90;;;;;;5075462;28;20175;-77
2022/06/19 13:47:41;;;;;;;13.73;4.00;;;23.70;99.90;;;;;;5075425;28;20197;-77
2022/06/19 13:50:26;;;;;;;9.55;4.45;;;23.90;99.90;;;;;;5075297;28;20684;-77
2022/06/19 13:53:07;;;;;;;15.30;4.68;;;24.10;99.90;;;;;;5073798;28;20207;-78
2022/06/19 13:55:51;;;;;;;11.07;4.63;;;24.40;99.90;;;;;;5075108;28;20302;-77
2022/06/19 13:58:54;;;;;;;10.65;3.50;;;24.50;99.90;;;;;;5075103;28;20217;-78
2022/06/19 14:01:29;;;;;;;17.02;4.60;;;24.70;99.90;;;;;;5075086;28;20160;-77
2022/06/19 14:07:07;;;;;;;13.98;4.68;;;23.80;99.90;;;;;;5075089;28;20267;-77
2022/06/19 14:09:42;;;;;;;14.30;4.85;;;23.80;99.90;;;;;;5074910;28;20218;-77
2022/06/19 14:12:12;;;;;;;12.07;4.93;;;23.70;99.90;;;;;;5073612;28;20171;-77
2022/06/19 14:14:43;;;;;;;12.32;4.95;;;23.60;99.90;;;;;;5073561;28;20245;-77
2022/06/19 14:17:30;;;;;;;12.82;5.38;;;23.80;99.90;;;;;;5074822;28;20629;-77
2022/06/19 14:20:30;;;;;;;17.98;5.78;;;24.10;99.90;;;;;;5073406;28;20171;-76
2022/06/19 14:23:14;;;;;;;11.35;4.75;;;24.40;99.90;;;;;;5074640;28;20188;-77
2022/06/19 14:26:04;;;;;;;13.10;4.35;;;24.50;99.90;;;;;;5073474;28;20171;-76
2022/06/19 14:29:19;;;;;;;12.05;4.70;;;24.80;99.90;;;;;;5073372;28;20176;-76
2022/06/19 14:31:46;;;;;;;8.07;3.70;;;24.80;99.90;;;;;;5071944;28;20274;-77
2022/06/19 14:34:11;;;;;;;11.10;3.63;;;24.80;99.90;;;;;;5072896;28;20195;-76
2022/06/19 14:36:37;;;;;;;9.30;3.13;;;24.70;99.90;;;;;;5074278;28;20217;-77
2022/06/19 14:39:26;;;;;;;7.13;3.30;;;24.80;99.90;;;;;;5074307;28;20164;-76
2022/06/19 14:41:58;;;;;;;17.33;3.88;;;25.00;99.90;;;;;;5074152;28;20160;-76
2022/06/19 14:44:24;;;;;;;9.65;3.63;;;25.00;99.90;;;;;;5074339;28;20164;-77
2022/06/19 14:47:09;;;;;;;9.55;2.70;;;25.10;99.90;;;;;;5074061;28;20629;-77
2022/06/19 14:49:49;;;;;;;6.22;3.53;;;25.30;99.90;;;;;;5072944;28;20171;-77
2022/06/19 14:52:40;;;;;;;8.23;3.33;;;25.40;99.90;;;;;;5074021;28;20217;-77
2022/06/19 14:55:31;;;;;;;12.40;3.95;;;25.40;99.90;;;;;;5073872;28;20219;-77
2022/06/19 14:58:00;;;;;;;5.95;3.33;;;25.40;99.90;;;;;;5072688;28;20249;-77
2022/06/19 15:00:39;;;;;;;8.82;3.80;;;25.80;99.90;;;;;;5073902;28;20609;-77
2022/06/19 15:03:34;;;;;;;6.65;3.20;;;25.80;99.90;;;;;;5073426;28;20171;-77
2022/06/19 15:06:20;;;;;;;7.22;3.67;;;25.70;99.90;;;;;;5071327;28;20657;-76
2022/06/19 15:09:00;;;;;;;11.90;3.17;;;25.90;99.90;;;;;;5073796;28;20192;-76
2022/06/19 15:11:29;;;;;;;4.88;2.78;;;25.60;99.90;;;;;;5073745;28;20164;-77
2022/06/19 15:14:09;;;;;;;2.85;2.53;;;25.40;99.90;;;;;;5073626;28;20203;-77
2022/06/19 15:16:49;;;;;;;8.82;3.45;;;25.30;99.90;;;;;;5072322;28;20167;-76
2022/06/19 15:19:15;;;;;;;12.57;3.47;;;25.20;99.90;;;;;;5072359;28;20206;-76
2022/06/19 15:21:44;;;;;;;11.05;2.88;;;25.30;99.90;;;;;;5073538;28;20199;-76
2022/06/19 15:24:16;;;;;;;8.52;3.53;;;25.30;99.90;;;;;;5072178;28;20172;-76
2022/06/19 15:26:42;;;;;;;7.53;3.13;;;25.70;99.90;;;;;;5073590;28;20171;-76
2022/06/19 15:29:40;;;;;;;12.07;3.47;;;25.50;99.90;;;;;;5073479;28;20172;-76
2022/06/19 15:32:43;;;;;;;7.00;3.22;;;25.30;99.90;;;;;;5073460;28;20175;-76
2022/06/19 15:35:46;;;;;;;8.15;3.25;;;25.10;99.90;;;;;;5072030;28;20290;-77
2022/06/19 15:38:25;;;;;;;7.97;2.95;;;24.90;99.90;;;;;;5071985;28;20561;-76
2022/06/19 15:40:51;;;;;;;7.45;3.47;;;24.90;99.90;;;;;;5071809;28;20225;-77
2022/06/19 15:43:16;;;;;;;8.05;2.85;;;25.00;99.90;;;;;;5072695;28;20191;-77
2022/06/19 15:45:57;;;;;;;9.55;3.58;;;25.30;99.90;;;;;;5073235;28;20700;-77
2022/06/19 15:48:28;;;;;;;7.40;2.40;;;25.30;99.90;;;;;;5073275;28;20250;-76
2022/06/19 15:50:54;;;;;;;11.48;2.85;;;25.10;99.90;;;;;;5073299;28;20175;-76
2022/06/19 15:53:28;;;;;;;6.30;2.92;;;24.90;99.90;;;;;;5071772;28;20171;-77
2022/06/19 15:56:05;;;;;;;6.95;3.58;;;25.00;99.90;;;;;;5073250;28;20175;-77
2022/06/19 15:58:34;;;;;;;11.63;4.40;;;25.30;99.90;;;;;;5071882;28;20178;-76
2022/06/19 16:01:15;;;;;;;10.40;4.07;;;25.20;99.90;;;;;;5073201;28;20164;-77
2022/06/19 16:03:54;;;;;;;8.30;3.85;;;25.00;99.90;;;;;;5071808;28;20595;-76
2022/06/19 16:06:23;;;;;;;6.20;4.07;;;24.50;99.90;;;;;;5073117;28;20164;-77
2022/06/19 16:09:10;;;;;;;10.98;3.70;;;24.30;99.90;;;;;;5073080;28;20186;-76
2022/06/19 16:11:38;;;;;;;9.02;3.50;;;24.50;99.90;;;;;;5072821;28;20583;-76
2022/06/19 16:14:15;;;;;;;8.15;3.97;;;24.60;99.90;;;;;;5072908;28;20195;-76
2022/06/19 16:16:55;;;;;;;5.95;3.53;;;24.70;99.90;;;;;;5074498;28;20178;-77
2022/06/19 16:19:23;;;;;;;5.80;3.30;;;24.80;99.90;;;;;;5077029;28;20160;-76
2022/06/19 16:22:06;;;;;;;8.20;2.95;;;24.90;99.90;;;;;;5076982;28;20164;-77
2022/06/19 16:24:53;;;;;;;4.72;3.10;;;25.00;99.90;;;;;;5076923;28;20229;-77
2022/06/19 16:27:23;;;;;;;14.70;4.15;;;25.10;99.90;;;;;;5075447;28;20209;-77
2022/06/19 16:29:51;;;;;;;3.85;2.63;;;25.50;99.90;;;;;;5076685;28;20175;-77
2022/06/19 16:32:23;;;;;;;9.30;2.80;;;25.70;99.90;;;;;;5076677;28;20229;-77
2022/06/19 16:44:11;;;;;;;5.55;2.85;;;25.90;99.90;;;;;;5076613;28;20194;-77
2022/06/19 16:46:25;;;;;;;6.30;2.97;;;26.30;99.90;;;;;;5079143;28;20183;-77
2022/06/19 16:48:51;;;;;;;10.65;3.10;;;26.20;99.90;;;;;;5076304;28;20170;-77
2022/06/19 16:51:22;;;;;;;7.82;2.50;;;26.10;99.90;;;;;;5076314;28;20167;-77
2022/06/19 16:53:51;;;;;;;7.57;3.22;;;26.00;99.90;;;;;;5075930;28;20223;-77
2022/06/19 16:56:32;;;;;;;13.38;3.30;;;26.20;99.90;;;;;;5076212;28;20172;-77
2022/06/19 16:59:05;;;;;;;3.63;2.28;;;26.10;99.90;;;;;;5076090;28;20250;-77
2022/06/19 17:01:37;;;;;;;6.50;2.50;;;25.70;99.90;;;;;;5074865;28;20182;-77
2022/06/19 17:04:13;;;;;;;5.50;2.53;;;25.40;99.90;;;;;;5074829;28;20171;-77
2022/06/19 17:06:44;;;;;;;4.70;2.78;;;25.20;99.90;;;;;;5074707;28;20220;-77
2022/06/19 17:09:19;;;;;;;6.00;2.20;;;25.10;99.90;;;;;;5075948;28;20183;-77
2022/06/19 17:11:53;;;;;;;5.93;2.95;;;24.90;99.90;;;;;;5075986;28;20171;-77
2022/06/19 17:14:22;;;;;;;8.85;3.08;;;24.80;99.90;;;;;;5075918;28;20231;-77
2022/06/19 17:16:58;;;;;;;8.25;2.65;;;24.80;99.90;;;;;;5075779;28;20214;-77
2022/06/19 17:19:27;;;;;;;5.85;2.40;;;24.50;99.90;;;;;;5074474;28;20171;-77
2022/06/19 17:21:55;;;;;;;7.18;2.55;;;24.30;99.90;;;;;;5074381;28;20267;-77
2022/06/19 17:24:30;;;;;;;7.28;2.85;;;24.10;99.90;;;;;;5074350;28;20171;-77
2022/06/19 17:27:04;;;;;;;8.13;2.80;;;23.70;99.90;;;;;;5075152;28;20171;-77
2022/06/19 17:29:47;;;;;;;6.88;2.50;;;23.60;99.90;;;;;;5075522;28;20252;-78
2022/06/19 17:32:31;;;;;;;6.03;2.42;;;23.40;99.90;;;;;;5075550;28;20190;-78
2022/06/19 17:35:17;;;;;;;3.65;2.10;;;23.10;99.90;;;;;;5075534;28;20191;-77
2022/06/19 17:37:48;;;;;;;4.10;1.95;;;22.80;99.90;;;;;;5075524;28;20171;-77
2022/06/19 17:40:31;;;;;;;4.43;2.03;;;22.70;99.90;;;;;;5075422;28;20667;-77
2022/06/19 17:43:01;;;;;;;5.57;2.15;;;22.70;99.90;;;;;;5075259;28;20223;-77
2022/06/19 17:45:27;;;;;;;6.90;3.03;;;22.70;99.90;;;;;;5074159;28;20179;-77
2022/06/19 17:47:53;;;;;;;4.20;2.15;;;23.00;99.90;;;;;;5075194;28;20709;-77
2022/06/19 17:50:34;;;;;;;7.20;2.20;;;23.20;99.90;;;;;;5075266;28;20168;-77
2022/06/19 17:53:03;;;;;;;4.13;1.92;;;23.00;99.90;;;;;;5075009;28;20168;-77
2022/06/19 17:55:33;;;;;;;9.07;2.38;;;22.80;99.90;;;;;;5073544;28;20227;-76
2022/06/19 17:58:17;;;;;;;4.97;1.95;;;23.00;99.90;;;;;;5073614;28;20172;-77
2022/06/19 18:01:05;;;;;;;6.38;2.30;;;23.20;99.90;;;;;;5075050;28;20175;-77
2022/06/19 18:03:33;;;;;;;8.63;3.25;;;22.80;99.90;;;;;;5073717;28;20172;-77
2022/06/19 18:06:00;;;;;;;8.68;3.10;;;22.80;99.90;;;;;;5074942;28;20640;-77
2022/06/19 18:08:32;;;;;;;5.32;2.22;;;22.70;99.90;;;;;;5075068;28;20211;-77
2022/06/19 18:11:10;;;;;;;4.53;2.30;;;22.60;99.90;;;;;;5073491;28;20171;-77
2022/06/19 18:13:43;;;;;;;3.53;1.92;;;22.40;99.90;;;;;;5073275;28;20544;-77
2022/06/19 18:18:57;;;;;;;7.75;2.92;;;21.80;99.90;;;;;;5075241;28;20237;-76
2022/06/19 18:21:26;;;;;;;11.02;2.50;;;21.60;99.90;;;;;;5074570;28;20160;-76
2022/06/19 18:23:53;;;;;;;5.57;2.60;;;21.40;99.90;;;;;;5074392;28;20195;-76
2022/06/19 18:26:33;;;;;;;4.88;2.80;;;21.40;99.90;;;;;;5074626;28;20171;-77
2022/06/19 18:29:01;;;;;;;5.32;2.28;;;21.20;99.90;;;;;;5073385;28;20221;-77
2022/06/19 18:31:27;;;;;;;5.03;2.10;;;21.10;99.90;;;;;;5073192;28;20524;-77
2022/06/19 18:33:53;;;;;;;7.55;2.85;;;21.00;99.90;;;;;;5074264;28;20195;-77
2022/06/19 18:36:19;;;;;;;8.00;2.38;;;21.00;99.90;;;;;;5073216;28;20519;-77
2022/06/19 18:38:46;;;;;;;3.50;1.90;;;21.00;99.90;;;;;;5073453;28;20290;-77
2022/06/19 18:41:12;;;;;;;9.13;2.78;;;20.80;99.90;;;;;;5074235;28;20506;-77
2022/06/19 18:43:38;;;;;;;8.82;2.55;;;20.60;99.90;;;;;;5074168;28;20164;-77
2022/06/19 18:46:06;;;;;;;4.30;2.08;;;20.40;99.90;;;;;;5074031;28;20166;-77
2022/06/19 18:48:32;;;;;;;5.65;2.17;;;20.10;99.90;;;;;;5073991;28;20160;-77
2022/06/19 18:50:58;;;;;;;8.18;2.55;;;19.90;99.90;;;;;;5073990;28;20164;-76
2022/06/19 18:53:29;;;;;;;7.45;2.03;;;19.90;99.90;;;;;;5073704;28;20199;-77
